sensor_id;sensor_type;location;lat;lon;timestamp;P1;durP1;ratioP1;P2;durP2;ratioP2
8986;SDS011;4529;51.360;12.474;2023-09-30T00:04:40;2.47;;;1.67;;
8986;SDS011;4529;51.360;12.474;2023-09-30T00:09:44;4.60;;;1.90;;
8986;SDS011;4529;51.360;12.474;2023-09-30T00:14:47;3.10;;;1.80;;
8986;SDS011;4529;51.360;12.474;2023-09-30T00:19:50;4.03;;;1.97;;
8986;SDS011;4529;51.360;12.474;2023-09-30T00:24:54;2.60;;;2.00;;
8986;SDS011;4529;51.360;12.474;2023-09-30T00:29:58;3.93;;;1.60;;
8986;SDS011;4529;51.360;12.474;2023-09-30T00:35:01;5.80;;;1.90;;
8986;SDS011;4529;51.360;12.474;2023-09-30T00:40:05;3.43;;;1.53;;
8986;SDS011;4529;51.360;12.474;2023-09-30T00:45:09;4.27;;;1.90;;
8986;SDS011;4529;51.360;12.474;2023-09-30T00:50:12;2.93;;;1.80;;
8986;SDS011;4529;51.360;12.474;2023-09-30T00:55:15;4.77;;;2.00;;
8986;SDS011;4529;51.360;12.474;2023-09-30T01:00:19;3.57;;;2.27;;
8986;SDS011;4529;51.360;12.474;2023-09-30T01:05:22;3.77;;;1.90;;
8986;SDS011;4529;51.360;12.474;2023-09-30T01:10:26;5.13;;;1.87;;
8986;SDS011;4529;51.360;12.474;2023-09-30T01:15:29;4.20;;;1.60;;
8986;SDS011;4529;51.360;12.474;2023-09-30T01:20:33;3.63;;;1.80;;
8986;SDS011;4529;51.360;12.474;2023-09-30T01:25:37;4.67;;;1.83;;
8986;SDS011;4529;51.360;12.474;2023-09-30T01:30:40;2.23;;;1.70;;
8986;SDS011;4529;51.360;12.474;2023-09-30T01:35:44;5.73;;;1.87;;
8986;SDS011;4529;51.360;12.474;2023-09-30T01:40:48;3.47;;;1.93;;
8986;SDS011;4529;51.360;12.474;2023-09-30T01:45:51;4.30;;;2.00;;
8986;SDS011;4529;51.360;12.474;2023-09-30T01:50:55;4.43;;;1.97;;
8986;SDS011;4529;51.360;12.474;2023-09-30T01:55:59;3.40;;;2.17;;
8986;SDS011;4529;51.360;12.474;2023-09-30T02:01:03;4.43;;;2.20;;
8986;SDS011;4529;51.360;12.474;2023-09-30T02:06:06;2.80;;;1.97;;
8986;SDS011;4529;51.360;12.474;2023-09-30T02:11:10;5.23;;;2.10;;
8986;SDS011;4529;51.360;12.474;2023-09-30T02:16:14;3.40;;;2.00;;
8986;SDS011;4529;51.360;12.474;2023-09-30T02:21:19;4.17;;;2.20;;
8986;SDS011;4529;51.360;12.474;2023-09-30T02:26:23;6.33;;;2.50;;
8986;SDS011;4529;51.360;12.474;2023-09-30T02:31:27;5.83;;;2.60;;
8986;SDS011;4529;51.360;12.474;2023-09-30T02:36:31;4.87;;;2.50;;
8986;SDS011;4529;51.360;12.474;2023-09-30T02:41:35;5.20;;;2.40;;
8986;SDS011;4529;51.360;12.474;2023-09-30T02:46:39;5.83;;;2.40;;
8986;SDS011;4529;51.360;12.474;2023-09-30T02:51:43;4.27;;;2.40;;
8986;SDS011;4529;51.360;12.474;2023-09-30T02:56:47;4.67;;;2.70;;
8986;SDS011;4529;51.360;12.474;2023-09-30T03:01:52;5.43;;;2.37;;
8986;SDS011;4529;51.360;12.474;2023-09-30T03:06:56;4.07;;;2.60;;
8986;SDS011;4529;51.360;12.474;2023-09-30T03:12:00;6.07;;;2.90;;
8986;SDS011;4529;51.360;12.474;2023-09-30T03:17:04;5.40;;;2.57;;
8986;SDS011;4529;51.360;12.474;2023-09-30T03:22:08;8.30;;;3.17;;
8986;SDS011;4529;51.360;12.474;2023-09-30T03:27:12;4.07;;;2.67;;
8986;SDS011;4529;51.360;12.474;2023-09-30T03:32:16;6.63;;;2.70;;
8986;SDS011;4529;51.360;12.474;2023-09-30T03:37:20;4.13;;;2.77;;
8986;SDS011;4529;51.360;12.474;2023-09-30T03:42:25;3.63;;;2.43;;
8986;SDS011;4529;51.360;12.474;2023-09-30T03:47:29;5.30;;;3.20;;
8986;SDS011;4529;51.360;12.474;2023-09-30T03:52:33;5.97;;;3.10;;
8986;SDS011;4529;51.360;12.474;2023-09-30T03:57:36;5.47;;;3.13;;
8986;SDS011;4529;51.360;12.474;2023-09-30T04:02:40;5.53;;;3.23;;
8986;SDS011;4529;51.360;12.474;2023-09-30T04:07:43;6.57;;;3.67;;
8986;SDS011;4529;51.360;12.474;2023-09-30T04:12:47;5.37;;;3.40;;
8986;SDS011;4529;51.360;12.474;2023-09-30T04:17:51;6.90;;;3.47;;
8986;SDS011;4529;51.360;12.474;2023-09-30T04:22:54;8.77;;;3.50;;
8986;SDS011;4529;51.360;12.474;2023-09-30T04:27:58;7.00;;;3.40;;
8986;SDS011;4529;51.360;12.474;2023-09-30T04:33:02;5.50;;;3.20;;
8986;SDS011;4529;51.360;12.474;2023-09-30T04:38:05;6.80;;;3.30;;
8986;SDS011;4529;51.360;12.474;2023-09-30T04:43:09;6.23;;;3.27;;
8986;SDS011;4529;51.360;12.474;2023-09-30T04:48:13;6.10;;;3.07;;
8986;SDS011;4529;51.360;12.474;2023-09-30T04:53:17;9.07;;;3.00;;
8986;SDS011;4529;51.360;12.474;2023-09-30T04:58:20;8.10;;;3.30;;
8986;SDS011;4529;51.360;12.474;2023-09-30T05:03:23;5.03;;;3.20;;
8986;SDS011;4529;51.360;12.474;2023-09-30T05:08:27;5.73;;;2.90;;
8986;SDS011;4529;51.360;12.474;2023-09-30T05:13:30;6.03;;;2.70;;
8986;SDS011;4529;51.360;12.474;2023-09-30T05:18:34;6.40;;;2.93;;
8986;SDS011;4529;51.360;12.474;2023-09-30T05:23:37;7.03;;;3.10;;
8986;SDS011;4529;51.360;12.474;2023-09-30T05:28:41;7.53;;;3.27;;
8986;SDS011;4529;51.360;12.474;2023-09-30T05:33:44;5.97;;;3.30;;
8986;SDS011;4529;51.360;12.474;2023-09-30T05:38:48;4.60;;;2.67;;
8986;SDS011;4529;51.360;12.474;2023-09-30T05:43:51;5.70;;;3.10;;
8986;SDS011;4529;51.360;12.474;2023-09-30T05:48:55;9.20;;;3.07;;
8986;SDS011;4529;51.360;12.474;2023-09-30T05:53:58;5.33;;;2.80;;
8986;SDS011;4529;51.360;12.474;2023-09-30T05:59:01;6.63;;;3.17;;
8986;SDS011;4529;51.360;12.474;2023-09-30T06:04:05;5.43;;;3.13;;
8986;SDS011;4529;51.360;12.474;2023-09-30T06:09:09;8.07;;;2.87;;
8986;SDS011;4529;51.360;12.474;2023-09-30T06:14:13;9.00;;;2.97;;
8986;SDS011;4529;51.360;12.474;2023-09-30T06:19:16;8.03;;;3.13;;
8986;SDS011;4529;51.360;12.474;2023-09-30T06:24:20;6.63;;;2.17;;
8986;SDS011;4529;51.360;12.474;2023-09-30T06:29:23;5.03;;;2.70;;
8986;SDS011;4529;51.360;12.474;2023-09-30T06:34:26;3.83;;;2.00;;
8986;SDS011;4529;51.360;12.474;2023-09-30T06:39:30;5.93;;;2.30;;
8986;SDS011;4529;51.360;12.474;2023-09-30T06:44:33;4.90;;;2.33;;
8986;SDS011;4529;51.360;12.474;2023-09-30T06:49:37;3.53;;;2.20;;
8986;SDS011;4529;51.360;12.474;2023-09-30T06:54:40;7.67;;;2.73;;
8986;SDS011;4529;51.360;12.474;2023-09-30T06:59:44;9.10;;;3.10;;
8986;SDS011;4529;51.360;12.474;2023-09-30T07:04:47;7.20;;;2.53;;
8986;SDS011;4529;51.360;12.474;2023-09-30T07:09:51;8.47;;;2.53;;
8986;SDS011;4529;51.360;12.474;2023-09-30T07:14:54;5.87;;;2.60;;
8986;SDS011;4529;51.360;12.474;2023-09-30T07:19:58;7.73;;;2.70;;
8986;SDS011;4529;51.360;12.474;2023-09-30T07:25:01;8.27;;;2.37;;
8986;SDS011;4529;51.360;12.474;2023-09-30T07:30:05;5.17;;;2.37;;
8986;SDS011;4529;51.360;12.474;2023-09-30T07:35:08;10.57;;;2.90;;
8986;SDS011;4529;51.360;12.474;2023-09-30T07:40:12;6.47;;;2.50;;
8986;SDS011;4529;51.360;12.474;2023-09-30T07:45:15;7.47;;;2.43;;
8986;SDS011;4529;51.360;12.474;2023-09-30T07:50:19;4.73;;;2.37;;
8986;SDS011;4529;51.360;12.474;2023-09-30T07:55:22;7.20;;;2.57;;
8986;SDS011;4529;51.360;12.474;2023-09-30T08:00:26;7.70;;;2.80;;
8986;SDS011;4529;51.360;12.474;2023-09-30T08:05:29;4.67;;;2.50;;
8986;SDS011;4529;51.360;12.474;2023-09-30T08:10:33;10.63;;;3.17;;
8986;SDS011;4529;51.360;12.474;2023-09-30T08:15:36;6.00;;;2.70;;
8986;SDS011;4529;51.360;12.474;2023-09-30T08:20:39;6.40;;;2.50;;
8986;SDS011;4529;51.360;12.474;2023-09-30T08:25:43;6.10;;;2.20;;
8986;SDS011;4529;51.360;12.474;2023-09-30T08:30:46;6.83;;;2.37;;
8986;SDS011;4529;51.360;12.474;2023-09-30T08:35:50;8.40;;;2.30;;
8986;SDS011;4529;51.360;12.474;2023-09-30T08:40:53;7.03;;;2.10;;
8986;SDS011;4529;51.360;12.474;2023-09-30T08:45:59;6.57;;;2.50;;
8986;SDS011;4529;51.360;12.474;2023-09-30T08:51:03;5.63;;;2.57;;
8986;SDS011;4529;51.360;12.474;2023-09-30T08:56:06;4.50;;;2.20;;
8986;SDS011;4529;51.360;12.474;2023-09-30T09:01:10;4.87;;;2.27;;
8986;SDS011;4529;51.360;12.474;2023-09-30T09:06:13;5.73;;;2.23;;
8986;SDS011;4529;51.360;12.474;2023-09-30T09:11:17;6.17;;;2.20;;
8986;SDS011;4529;51.360;12.474;2023-09-30T09:16:20;6.30;;;2.47;;
8986;SDS011;4529;51.360;12.474;2023-09-30T09:21:24;3.67;;;2.30;;
8986;SDS011;4529;51.360;12.474;2023-09-30T09:26:28;5.17;;;2.30;;
8986;SDS011;4529;51.360;12.474;2023-09-30T09:31:31;6.03;;;2.20;;
8986;SDS011;4529;51.360;12.474;2023-09-30T09:36:40;6.97;;;2.50;;
8986;SDS011;4529;51.360;12.474;2023-09-30T09:41:52;8.60;;;2.10;;
8986;SDS011;4529;51.360;12.474;2023-09-30T09:46:55;4.83;;;2.33;;
8986;SDS011;4529;51.360;12.474;2023-09-30T09:51:58;7.07;;;2.07;;
8986;SDS011;4529;51.360;12.474;2023-09-30T09:57:02;7.07;;;2.30;;
8986;SDS011;4529;51.360;12.474;2023-09-30T10:02:10;5.43;;;2.27;;
8986;SDS011;4529;51.360;12.474;2023-09-30T10:07:28;5.63;;;2.13;;
8986;SDS011;4529;51.360;12.474;2023-09-30T10:12:24;3.97;;;1.97;;
8986;SDS011;4529;51.360;12.474;2023-09-30T10:28:33;7.23;;;2.23;;
8986;SDS011;4529;51.360;12.474;2023-09-30T10:39:05;6.23;;;2.07;;
8986;SDS011;4529;51.360;12.474;2023-09-30T10:49:30;6.60;;;2.30;;
8986;SDS011;4529;51.360;12.474;2023-09-30T10:54:33;4.57;;;1.90;;
8986;SDS011;4529;51.360;12.474;2023-09-30T10:59:36;4.33;;;1.97;;
8986;SDS011;4529;51.360;12.474;2023-09-30T11:04:46;3.07;;;1.83;;
8986;SDS011;4529;51.360;12.474;2023-09-30T11:09:49;5.10;;;2.20;;
8986;SDS011;4529;51.360;12.474;2023-09-30T11:14:58;5.07;;;2.03;;
8986;SDS011;4529;51.360;12.474;2023-09-30T11:20:02;2.97;;;1.80;;
8986;SDS011;4529;51.360;12.474;2023-09-30T11:25:06;6.03;;;1.90;;
8986;SDS011;4529;51.360;12.474;2023-09-30T11:30:09;4.47;;;1.80;;
8986;SDS011;4529;51.360;12.474;2023-09-30T11:35:22;3.33;;;1.60;;
8986;SDS011;4529;51.360;12.474;2023-09-30T11:40:26;4.07;;;1.97;;
8986;SDS011;4529;51.360;12.474;2023-09-30T11:45:29;3.77;;;1.87;;
8986;SDS011;4529;51.360;12.474;2023-09-30T11:50:48;3.80;;;1.90;;
8986;SDS011;4529;51.360;12.474;2023-09-30T11:55:51;3.13;;;1.50;;
8986;SDS011;4529;51.360;12.474;2023-09-30T12:00:57;2.67;;;1.73;;
8986;SDS011;4529;51.360;12.474;2023-09-30T12:05:59;4.43;;;1.67;;
8986;SDS011;4529;51.360;12.474;2023-09-30T12:11:04;4.03;;;1.90;;
8986;SDS011;4529;51.360;12.474;2023-09-30T12:16:08;3.47;;;1.90;;
8986;SDS011;4529;51.360;12.474;2023-09-30T12:21:12;4.13;;;1.60;;
8986;SDS011;4529;51.360;12.474;2023-09-30T12:26:16;6.23;;;1.97;;
8986;SDS011;4529;51.360;12.474;2023-09-30T12:31:20;4.93;;;1.80;;
8986;SDS011;4529;51.360;12.474;2023-09-30T12:36:24;2.97;;;1.70;;
8986;SDS011;4529;51.360;12.474;2023-09-30T12:41:28;4.07;;;2.10;;
8986;SDS011;4529;51.360;12.474;2023-09-30T12:46:33;5.70;;;1.90;;
8986;SDS011;4529;51.360;12.474;2023-09-30T12:51:37;6.63;;;2.10;;
8986;SDS011;4529;51.360;12.474;2023-09-30T12:56:41;5.80;;;2.10;;
8986;SDS011;4529;51.360;12.474;2023-09-30T13:01:45;2.83;;;1.80;;
8986;SDS011;4529;51.360;12.474;2023-09-30T13:06:49;5.97;;;2.20;;
8986;SDS011;4529;51.360;12.474;2023-09-30T13:11:53;5.53;;;2.03;;
8986;SDS011;4529;51.360;12.474;2023-09-30T13:16:57;5.27;;;1.87;;
8986;SDS011;4529;51.360;12.474;2023-09-30T13:22:01;3.87;;;2.10;;
8986;SDS011;4529;51.360;12.474;2023-09-30T13:27:06;5.00;;;1.90;;
8986;SDS011;4529;51.360;12.474;2023-09-30T13:32:10;2.93;;;1.67;;
8986;SDS011;4529;51.360;12.474;2023-09-30T13:37:13;4.33;;;2.00;;
8986;SDS011;4529;51.360;12.474;2023-09-30T13:42:17;7.70;;;2.00;;
8986;SDS011;4529;51.360;12.474;2023-09-30T13:47:20;3.67;;;2.07;;
8986;SDS011;4529;51.360;12.474;2023-09-30T13:52:23;3.73;;;1.80;;
8986;SDS011;4529;51.360;12.474;2023-09-30T13:57:27;3.37;;;1.70;;
8986;SDS011;4529;51.360;12.474;2023-09-30T14:02:30;7.83;;;2.27;;
8986;SDS011;4529;51.360;12.474;2023-09-30T14:07:37;4.17;;;1.73;;
8986;SDS011;4529;51.360;12.474;2023-09-30T14:12:37;4.93;;;2.10;;
8986;SDS011;4529;51.360;12.474;2023-09-30T14:17:41;4.37;;;1.70;;
8986;SDS011;4529;51.360;12.474;2023-09-30T14:22:44;3.13;;;1.80;;
8986;SDS011;4529;51.360;12.474;2023-09-30T14:27:48;4.23;;;1.83;;
8986;SDS011;4529;51.360;12.474;2023-09-30T14:32:51;4.40;;;1.80;;
8986;SDS011;4529;51.360;12.474;2023-09-30T14:37:55;3.70;;;1.90;;
8986;SDS011;4529;51.360;12.474;2023-09-30T14:42:58;3.77;;;1.80;;
8986;SDS011;4529;51.360;12.474;2023-09-30T14:48:02;5.37;;;1.83;;
8986;SDS011;4529;51.360;12.474;2023-09-30T14:53:05;3.13;;;1.77;;
8986;SDS011;4529;51.360;12.474;2023-09-30T14:58:09;3.67;;;1.73;;
8986;SDS011;4529;51.360;12.474;2023-09-30T15:03:12;3.20;;;1.53;;
8986;SDS011;4529;51.360;12.474;2023-09-30T15:08:15;4.63;;;1.60;;
8986;SDS011;4529;51.360;12.474;2023-09-30T15:13:19;3.50;;;1.70;;
8986;SDS011;4529;51.360;12.474;2023-09-30T15:18:22;3.57;;;1.90;;
8986;SDS011;4529;51.360;12.474;2023-09-30T15:23:26;4.97;;;1.73;;
8986;SDS011;4529;51.360;12.474;2023-09-30T15:28:29;3.30;;;1.97;;
8986;SDS011;4529;51.360;12.474;2023-09-30T15:33:33;2.43;;;1.60;;
8986;SDS011;4529;51.360;12.474;2023-09-30T15:38:36;4.17;;;1.70;;
8986;SDS011;4529;51.360;12.474;2023-09-30T15:43:40;3.33;;;1.87;;
8986;SDS011;4529;51.360;12.474;2023-09-30T15:48:43;2.57;;;1.40;;
8986;SDS011;4529;51.360;12.474;2023-09-30T15:53:47;4.97;;;1.80;;
8986;SDS011;4529;51.360;12.474;2023-09-30T15:58:50;2.87;;;1.70;;
8986;SDS011;4529;51.360;12.474;2023-09-30T16:03:54;5.13;;;2.20;;
8986;SDS011;4529;51.360;12.474;2023-09-30T16:08:58;3.20;;;2.10;;
8986;SDS011;4529;51.360;12.474;2023-09-30T16:14:01;3.37;;;1.77;;
8986;SDS011;4529;51.360;12.474;2023-09-30T16:19:05;3.90;;;2.10;;
8986;SDS011;4529;51.360;12.474;2023-09-30T16:24:08;4.60;;;1.87;;
8986;SDS011;4529;51.360;12.474;2023-09-30T16:29:12;3.73;;;2.30;;
8986;SDS011;4529;51.360;12.474;2023-09-30T16:34:15;2.00;;;1.80;;
8986;SDS011;4529;51.360;12.474;2023-09-30T16:39:18;5.83;;;2.30;;
8986;SDS011;4529;51.360;12.474;2023-09-30T16:44:22;6.30;;;2.30;;
8986;SDS011;4529;51.360;12.474;2023-09-30T16:49:26;4.83;;;2.40;;
8986;SDS011;4529;51.360;12.474;2023-09-30T16:54:29;5.50;;;2.57;;
8986;SDS011;4529;51.360;12.474;2023-09-30T16:59:32;3.43;;;2.57;;
8986;SDS011;4529;51.360;12.474;2023-09-30T17:04:36;5.07;;;2.90;;
8986;SDS011;4529;51.360;12.474;2023-09-30T17:09:39;4.83;;;2.83;;
8986;SDS011;4529;51.360;12.474;2023-09-30T17:14:43;5.13;;;2.50;;
8986;SDS011;4529;51.360;12.474;2023-09-30T17:19:48;5.73;;;2.80;;
8986;SDS011;4529;51.360;12.474;2023-09-30T17:24:52;5.60;;;2.60;;
8986;SDS011;4529;51.360;12.474;2023-09-30T17:29:55;5.93;;;3.00;;
8986;SDS011;4529;51.360;12.474;2023-09-30T17:34:59;3.60;;;2.57;;
8986;SDS011;4529;51.360;12.474;2023-09-30T17:40:03;4.33;;;2.90;;
8986;SDS011;4529;51.360;12.474;2023-09-30T17:45:07;4.03;;;2.93;;
8986;SDS011;4529;51.360;12.474;2023-09-30T17:50:11;3.10;;;2.80;;
8986;SDS011;4529;51.360;12.474;2023-09-30T17:55:15;5.27;;;2.90;;
8986;SDS011;4529;51.360;12.474;2023-09-30T18:00:19;3.73;;;2.73;;
8986;SDS011;4529;51.360;12.474;2023-09-30T18:05:23;5.03;;;3.03;;
8986;SDS011;4529;51.360;12.474;2023-09-30T18:10:27;6.10;;;2.90;;
8986;SDS011;4529;51.360;12.474;2023-09-30T18:15:31;4.73;;;2.77;;
8986;SDS011;4529;51.360;12.474;2023-09-30T18:20:36;7.70;;;3.13;;
8986;SDS011;4529;51.360;12.474;2023-09-30T18:25:40;4.93;;;3.03;;
8986;SDS011;4529;51.360;12.474;2023-09-30T18:30:44;6.33;;;3.43;;
8986;SDS011;4529;51.360;12.474;2023-09-30T18:35:48;5.03;;;3.13;;
8986;SDS011;4529;51.360;12.474;2023-09-30T18:40:52;6.90;;;3.50;;
8986;SDS011;4529;51.360;12.474;2023-09-30T18:45:56;5.73;;;3.50;;
8986;SDS011;4529;51.360;12.474;2023-09-30T18:51:00;6.60;;;3.30;;
8986;SDS011;4529;51.360;12.474;2023-09-30T18:56:05;6.57;;;3.50;;
8986;SDS011;4529;51.360;12.474;2023-09-30T19:01:09;5.47;;;3.27;;
8986;SDS011;4529;51.360;12.474;2023-09-30T19:06:13;5.23;;;3.97;;
8986;SDS011;4529;51.360;12.474;2023-09-30T19:11:17;8.30;;;4.40;;
8986;SDS011;4529;51.360;12.474;2023-09-30T19:16:21;8.53;;;6.47;;
8986;SDS011;4529;51.360;12.474;2023-09-30T19:21:25;11.40;;;7.63;;
8986;SDS011;4529;51.360;12.474;2023-09-30T19:26:28;10.10;;;7.30;;
8986;SDS011;4529;51.360;12.474;2023-09-30T19:31:31;10.07;;;6.70;;
8986;SDS011;4529;51.360;12.474;2023-09-30T19:36:35;11.53;;;5.97;;
8986;SDS011;4529;51.360;12.474;2023-09-30T19:41:38;7.30;;;5.43;;
8986;SDS011;4529;51.360;12.474;2023-09-30T19:46:42;7.27;;;5.10;;
8986;SDS011;4529;51.360;12.474;2023-09-30T19:51:45;10.53;;;5.30;;
8986;SDS011;4529;51.360;12.474;2023-09-30T19:56:49;10.27;;;5.20;;
8986;SDS011;4529;51.360;12.474;2023-09-30T20:01:52;10.53;;;6.93;;
8986;SDS011;4529;51.360;12.474;2023-09-30T20:06:56;9.00;;;5.70;;
8986;SDS011;4529;51.360;12.474;2023-09-30T20:11:59;10.73;;;5.10;;
8986;SDS011;4529;51.360;12.474;2023-09-30T20:17:04;9.03;;;5.63;;
8986;SDS011;4529;51.360;12.474;2023-09-30T20:22:07;7.57;;;5.40;;
8986;SDS011;4529;51.360;12.474;2023-09-30T20:27:11;8.30;;;4.60;;
8986;SDS011;4529;51.360;12.474;2023-09-30T20:32:15;8.07;;;5.10;;
8986;SDS011;4529;51.360;12.474;2023-09-30T20:37:18;8.60;;;5.80;;
8986;SDS011;4529;51.360;12.474;2023-09-30T20:42:22;9.33;;;6.00;;
8986;SDS011;4529;51.360;12.474;2023-09-30T20:47:25;10.07;;;6.33;;
8986;SDS011;4529;51.360;12.474;2023-09-30T20:52:29;9.67;;;6.63;;
8986;SDS011;4529;51.360;12.474;2023-09-30T20:57:33;10.13;;;6.20;;
8986;SDS011;4529;51.360;12.474;2023-09-30T21:02:36;11.47;;;7.93;;
8986;SDS011;4529;51.360;12.474;2023-09-30T21:07:40;13.03;;;7.90;;
8986;SDS011;4529;51.360;12.474;2023-09-30T21:12:43;12.77;;;8.47;;
8986;SDS011;4529;51.360;12.474;2023-09-30T21:17:47;7.40;;;6.40;;
8986;SDS011;4529;51.360;12.474;2023-09-30T21:22:50;18.83;;;10.50;;
8986;SDS011;4529;51.360;12.474;2023-09-30T21:27:53;17.60;;;9.73;;
8986;SDS011;4529;51.360;12.474;2023-09-30T21:32:57;13.97;;;7.20;;
8986;SDS011;4529;51.360;12.474;2023-09-30T21:38:00;8.73;;;6.50;;
8986;SDS011;4529;51.360;12.474;2023-09-30T21:43:04;11.77;;;6.43;;
8986;SDS011;4529;51.360;12.474;2023-09-30T21:48:07;11.77;;;6.50;;
8986;SDS011;4529;51.360;12.474;2023-09-30T21:53:11;9.57;;;6.27;;
8986;SDS011;4529;51.360;12.474;2023-09-30T21:58:14;9.13;;;6.50;;
8986;SDS011;4529;51.360;12.474;2023-09-30T22:03:18;11.30;;;6.07;;
8986;SDS011;4529;51.360;12.474;2023-09-30T22:08:22;9.57;;;6.17;;
8986;SDS011;4529;51.360;12.474;2023-09-30T22:13:25;8.93;;;6.53;;
8986;SDS011;4529;51.360;12.474;2023-09-30T22:18:28;8.90;;;6.40;;
8986;SDS011;4529;51.360;12.474;2023-09-30T22:23:32;10.73;;;6.10;;
8986;SDS011;4529;51.360;12.474;2023-09-30T22:28:35;11.43;;;6.73;;
8986;SDS011;4529;51.360;12.474;2023-09-30T22:33:38;10.00;;;6.37;;
8986;SDS011;4529;51.360;12.474;2023-09-30T22:38:42;9.63;;;6.17;;
8986;SDS011;4529;51.360;12.474;2023-09-30T22:43:45;8.47;;;5.83;;
8986;SDS011;4529;51.360;12.474;2023-09-30T22:48:49;9.50;;;5.80;;
8986;SDS011;4529;51.360;12.474;2023-09-30T22:53:52;8.67;;;5.30;;
8986;SDS011;4529;51.360;12.474;2023-09-30T22:58:56;7.67;;;5.20;;
8986;SDS011;4529;51.360;12.474;2023-09-30T23:03:59;6.90;;;5.10;;
8986;SDS011;4529;51.360;12.474;2023-09-30T23:09:05;6.37;;;4.97;;
8986;SDS011;4529;51.360;12.474;2023-09-30T23:14:07;8.00;;;5.07;;
8986;SDS011;4529;51.360;12.474;2023-09-30T23:19:10;9.67;;;5.03;;
8986;SDS011;4529;51.360;12.474;2023-09-30T23:24:14;7.70;;;5.07;;
8986;SDS011;4529;51.360;12.474;2023-09-30T23:29:17;7.83;;;5.07;;
8986;SDS011;4529;51.360;12.474;2023-09-30T23:34:21;9.23;;;5.53;;
8986;SDS011;4529;51.360;12.474;2023-09-30T23:39:25;6.13;;;4.60;;
8986;SDS011;4529;51.360;12.474;2023-09-30T23:44:28;7.17;;;5.03;;
8986;SDS011;4529;51.360;12.474;2023-09-30T23:49:31;6.40;;;4.70;;
8986;SDS011;4529;51.360;12.474;2023-09-30T23:54:35;7.83;;;5.00;;
8986;SDS011;4529;51.360;12.474;2023-09-30T23:59:38;6.97;;;5.10;;
